sensor_id;sensor_type;location;lat;lon;timestamp;pressure;altitude;pressure_sealevel;temperature;humidity
59315;BME280;46521;50.160;20.802;2023-06-22T00:15:06;99726.20;;;21.77;66.50
59315;BME280;46521;50.160;20.802;2023-06-22T00:25:07;99691.84;;;21.68;66.59
59315;BME280;46521;50.160;20.802;2023-06-22T00:35:09;99700.63;;;21.63;66.95
59315;BME280;46521;50.160;20.802;2023-06-22T00:45:11;99725.94;;;21.38;67.12
59315;BME280;46521;50.160;20.802;2023-06-22T00:55:12;99722.82;;;21.06;67.86
59315;BME280;46521;50.160;20.802;2023-06-22T01:05:16;99728.33;;;20.99;68.27
59315;BME280;46521;50.160;20.802;2023-06-22T01:15:23;99740.23;;;20.80;68.36
59315;BME280;46521;50.160;20.802;2023-06-22T01:25:36;99738.63;;;20.79;68.72
59315;BME280;46521;50.160;20.802;2023-06-22T01:35:44;99722.13;;;20.75;68.86
59315;BME280;46521;50.160;20.802;2023-06-22T01:45:46;99728.45;;;20.69;69.10
59315;BME280;46521;50.160;20.802;2023-06-22T01:55:48;99727.16;;;20.72;69.00
59315;BME280;46521;50.160;20.802;2023-06-22T02:05:52;99740.83;;;20.70;69.42
59315;BME280;46521;50.160;20.802;2023-06-22T02:15:56;99751.23;;;20.66;69.43
59315;BME280;46521;50.160;20.802;2023-06-22T02:25:58;99760.88;;;20.56;69.62
59315;BME280;46521;50.160;20.802;2023-06-22T02:35:59;99773.13;;;20.51;69.84
59315;BME280;46521;50.160;20.802;2023-06-22T02:46:01;99776.45;;;20.65;70.03
59315;BME280;46521;50.160;20.802;2023-06-22T02:56:02;99791.77;;;20.77;70.01
59315;BME280;46521;50.160;20.802;2023-06-22T03:06:06;99791.66;;;20.72;69.95
59315;BME280;46521;50.160;20.802;2023-06-22T03:16:07;99791.19;;;20.75;70.28
59315;BME280;46521;50.160;20.802;2023-06-22T03:26:09;99797.98;;;20.89;70.18
59315;BME280;46521;50.160;20.802;2023-06-22T03:36:12;99810.64;;;21.00;70.20
59315;BME280;46521;50.160;20.802;2023-06-22T03:46:13;99821.61;;;21.11;70.30
59315;BME280;46521;50.160;20.802;2023-06-22T03:56:14;99835.19;;;21.28;70.09
59315;BME280;46521;50.160;20.802;2023-06-22T04:06:21;99848.98;;;21.31;70.13
59315;BME280;46521;50.160;20.802;2023-06-22T04:16:23;99847.58;;;21.40;70.24
59315;BME280;46521;50.160;20.802;2023-06-22T04:26:25;99853.46;;;21.49;70.36
59315;BME280;46521;50.160;20.802;2023-06-22T04:36:26;99866.66;;;21.63;70.42
59315;BME280;46521;50.160;20.802;2023-06-22T04:46:31;99864.91;;;21.68;70.40
59315;BME280;46521;50.160;20.802;2023-06-22T04:56:35;99885.50;;;21.74;70.47
59315;BME280;46521;50.160;20.802;2023-06-22T05:06:36;99884.79;;;21.67;70.39
59315;BME280;46521;50.160;20.802;2023-06-22T05:16:38;99877.31;;;22.22;70.38
59315;BME280;46521;50.160;20.802;2023-06-22T05:26:40;99882.98;;;22.95;69.69
59315;BME280;46521;50.160;20.802;2023-06-22T05:36:41;99890.17;;;23.40;69.16
59315;BME280;46521;50.160;20.802;2023-06-22T05:46:45;99898.40;;;23.84;68.71
59315;BME280;46521;50.160;20.802;2023-06-22T05:56:47;99909.00;;;24.35;68.13
59315;BME280;46521;50.160;20.802;2023-06-22T06:06:49;99893.99;;;24.72;67.37
59315;BME280;46521;50.160;20.802;2023-06-22T06:16:50;99886.43;;;25.33;66.72
59315;BME280;46521;50.160;20.802;2023-06-22T06:26:52;99886.67;;;25.75;65.90
59315;BME280;46521;50.160;20.802;2023-06-22T06:36:53;99891.48;;;26.20;64.96
59315;BME280;46521;50.160;20.802;2023-06-22T06:46:55;99900.05;;;26.65;64.47
59315;BME280;46521;50.160;20.802;2023-06-22T06:56:56;99901.14;;;26.85;63.61
59315;BME280;46521;50.160;20.802;2023-06-22T07:07:00;99905.37;;;26.34;63.51
59315;BME280;46521;50.160;20.802;2023-06-22T07:17:02;99911.44;;;26.67;63.46
59315;BME280;46521;50.160;20.802;2023-06-22T07:27:04;99908.75;;;26.83;63.14
59315;BME280;46521;50.160;20.802;2023-06-22T07:37:07;99900.08;;;27.22;62.56
59315;BME280;46521;50.160;20.802;2023-06-22T07:47:09;99910.92;;;27.47;62.13
59315;BME280;46521;50.160;20.802;2023-06-22T07:57:10;99910.94;;;27.53;61.47
59315;BME280;46521;50.160;20.802;2023-06-22T08:07:12;99907.57;;;27.92;61.52
59315;BME280;46521;50.160;20.802;2023-06-22T08:17:13;99904.66;;;28.38;60.09
59315;BME280;46521;50.160;20.802;2023-06-22T08:27:15;99902.13;;;28.52;59.96
59315;BME280;46521;50.160;20.802;2023-06-22T08:37:18;99896.87;;;29.05;58.92
59315;BME280;46521;50.160;20.802;2023-06-22T08:47:20;99891.98;;;29.37;58.71
59315;BME280;46521;50.160;20.802;2023-06-22T08:57:22;99894.07;;;29.16;58.07
59315;BME280;46521;50.160;20.802;2023-06-22T09:07:24;99905.96;;;29.83;57.81
59315;BME280;46521;50.160;20.802;2023-06-22T09:17:26;99922.45;;;29.09;56.84
59315;BME280;46521;50.160;20.802;2023-06-22T09:27:28;99911.21;;;29.16;57.02
59315;BME280;46521;50.160;20.802;2023-06-22T09:37:30;99914.17;;;28.85;57.05
59315;BME280;46521;50.160;20.802;2023-06-22T09:47:31;99913.23;;;30.12;56.05
59315;BME280;46521;50.160;20.802;2023-06-22T09:57:32;99918.31;;;29.46;55.51
59315;BME280;46521;50.160;20.802;2023-06-22T10:07:34;99913.43;;;28.74;55.80
59315;BME280;46521;50.160;20.802;2023-06-22T10:17:40;99902.60;;;28.14;55.87
59315;BME280;46521;50.160;20.802;2023-06-22T10:27:42;99906.26;;;29.53;54.77
59315;BME280;46521;50.160;20.802;2023-06-22T10:37:44;99895.85;;;30.08;54.30
59315;BME280;46521;50.160;20.802;2023-06-22T10:47:46;99892.20;;;30.56;53.35
59315;BME280;46521;50.160;20.802;2023-06-22T10:57:48;99892.32;;;31.03;51.29
59315;BME280;46521;50.160;20.802;2023-06-22T11:07:50;99888.63;;;31.26;50.81
59315;BME280;46521;50.160;20.802;2023-06-22T11:17:52;99886.05;;;31.49;49.33
59315;BME280;46521;50.160;20.802;2023-06-22T11:27:53;99883.51;;;31.53;48.77
59315;BME280;46521;50.160;20.802;2023-06-22T11:37:55;99873.76;;;30.67;48.97
59315;BME280;46521;50.160;20.802;2023-06-22T11:47:57;99866.67;;;31.18;48.76
59315;BME280;46521;50.160;20.802;2023-06-22T11:57:58;99856.36;;;31.42;47.40
59315;BME280;46521;50.160;20.802;2023-06-22T12:08:04;99841.38;;;31.26;47.68
59315;BME280;46521;50.160;20.802;2023-06-22T12:18:05;99836.36;;;31.61;47.74
59315;BME280;46521;50.160;20.802;2023-06-22T12:28:07;99828.86;;;31.80;46.82
59315;BME280;46521;50.160;20.802;2023-06-22T12:38:08;99827.22;;;31.93;46.20
59315;BME280;46521;50.160;20.802;2023-06-22T12:48:10;99823.91;;;31.55;46.22
59315;BME280;46521;50.160;20.802;2023-06-22T12:58:12;99817.64;;;31.54;45.73
59315;BME280;46521;50.160;20.802;2023-06-22T13:08:13;99818.78;;;31.06;45.43
59315;BME280;46521;50.160;20.802;2023-06-22T13:18:15;99807.30;;;30.90;45.50
59315;BME280;46521;50.160;20.802;2023-06-22T13:28:16;99801.48;;;31.11;44.96
59315;BME280;46521;50.160;20.802;2023-06-22T13:38:17;99809.98;;;31.09;44.41
59315;BME280;46521;50.160;20.802;2023-06-22T13:48:19;99798.98;;;31.15;44.48
59315;BME280;46521;50.160;20.802;2023-06-22T13:58:20;99795.84;;;31.21;44.70
59315;BME280;46521;50.160;20.802;2023-06-22T14:08:22;99781.07;;;31.08;43.69
59315;BME280;46521;50.160;20.802;2023-06-22T14:18:25;99783.45;;;30.96;43.56
59315;BME280;46521;50.160;20.802;2023-06-22T14:28:26;99787.88;;;30.92;43.48
59315;BME280;46521;50.160;20.802;2023-06-22T14:38:28;99775.36;;;30.91;42.64
59315;BME280;46521;50.160;20.802;2023-06-22T14:48:29;99765.20;;;30.78;42.21
59315;BME280;46521;50.160;20.802;2023-06-22T14:58:31;99770.92;;;30.62;42.04
59315;BME280;46521;50.160;20.802;2023-06-22T15:08:40;99758.13;;;30.44;42.12
59315;BME280;46521;50.160;20.802;2023-06-22T15:18:42;99756.15;;;30.30;41.68
59315;BME280;46521;50.160;20.802;2023-06-22T15:28:43;99755.94;;;30.08;41.22
59315;BME280;46521;50.160;20.802;2023-06-22T15:38:45;99754.39;;;30.01;41.50
59315;BME280;46521;50.160;20.802;2023-06-22T15:48:47;99761.94;;;29.91;41.97
59315;BME280;46521;50.160;20.802;2023-06-22T15:58:49;99759.38;;;29.75;41.16
59315;BME280;46521;50.160;20.802;2023-06-22T16:08:50;99754.56;;;29.67;41.17
59315;BME280;46521;50.160;20.802;2023-06-22T16:18:52;99742.94;;;29.61;40.69
59315;BME280;46521;50.160;20.802;2023-06-22T16:28:53;99742.05;;;29.47;40.45
59315;BME280;46521;50.160;20.802;2023-06-22T16:38:55;99731.69;;;29.25;40.64
59315;BME280;46521;50.160;20.802;2023-06-22T16:48:56;99730.55;;;29.02;41.45
59315;BME280;46521;50.160;20.802;2023-06-22T16:58:58;99733.50;;;28.81;42.04
59315;BME280;46521;50.160;20.802;2023-06-22T17:09:01;99733.36;;;28.67;42.54
59315;BME280;46521;50.160;20.802;2023-06-22T17:19:05;99726.39;;;28.51;43.76
59315;BME280;46521;50.160;20.802;2023-06-22T17:29:08;99717.88;;;28.28;43.94
59315;BME280;46521;50.160;20.802;2023-06-22T17:39:14;99720.02;;;27.97;44.82
59315;BME280;46521;50.160;20.802;2023-06-22T17:49:16;99716.92;;;27.64;45.69
59315;BME280;46521;50.160;20.802;2023-06-22T17:59:19;99719.22;;;27.36;46.80
59315;BME280;46521;50.160;20.802;2023-06-22T18:09:21;99714.63;;;27.26;47.56
59315;BME280;46521;50.160;20.802;2023-06-22T18:19:23;99703.23;;;27.19;48.41
59315;BME280;46521;50.160;20.802;2023-06-22T18:29:25;99692.70;;;27.02;48.83
59315;BME280;46521;50.160;20.802;2023-06-22T18:39:28;99691.14;;;26.75;49.45
59315;BME280;46521;50.160;20.802;2023-06-22T18:49:32;99697.66;;;26.49;50.26
59315;BME280;46521;50.160;20.802;2023-06-22T19:20:31;99711.66;;;25.68;52.20
59315;BME280;46521;50.160;20.802;2023-06-22T19:30:33;99710.49;;;25.44;52.45
59315;BME280;46521;50.160;20.802;2023-06-22T19:40:39;99702.71;;;25.05;53.51
59315;BME280;46521;50.160;20.802;2023-06-22T19:50:42;99705.92;;;24.96;53.91
59315;BME280;46521;50.160;20.802;2023-06-22T20:00:44;99703.64;;;24.78;54.47
59315;BME280;46521;50.160;20.802;2023-06-22T20:10:55;99693.27;;;24.59;54.94
59315;BME280;46521;50.160;20.802;2023-06-22T20:20:59;99687.20;;;24.47;55.15
59315;BME280;46521;50.160;20.802;2023-06-22T20:31:08;99691.72;;;24.36;55.50
59315;BME280;46521;50.160;20.802;2023-06-22T20:41:11;99687.05;;;24.26;55.98
59315;BME280;46521;50.160;20.802;2023-06-22T20:51:13;99698.23;;;24.08;56.29
59315;BME280;46521;50.160;20.802;2023-06-22T21:01:14;99686.55;;;23.75;57.13
59315;BME280;46521;50.160;20.802;2023-06-22T21:11:18;99663.21;;;23.64;57.35
59315;BME280;46521;50.160;20.802;2023-06-22T21:21:20;99656.55;;;23.49;57.57
59315;BME280;46521;50.160;20.802;2023-06-22T21:31:21;99662.46;;;23.46;57.73
59315;BME280;46521;50.160;20.802;2023-06-22T21:41:23;99646.77;;;23.43;58.03
59315;BME280;46521;50.160;20.802;2023-06-22T21:51:24;99640.57;;;23.43;58.23
59315;BME280;46521;50.160;20.802;2023-06-22T22:01:26;99649.88;;;23.30;58.54
59315;BME280;46521;50.160;20.802;2023-06-22T22:11:27;99641.14;;;23.23;58.97
59315;BME280;46521;50.160;20.802;2023-06-22T22:21:29;99629.66;;;23.10;59.31
59315;BME280;46521;50.160;20.802;2023-06-22T22:31:31;99621.58;;;23.10;59.50
59315;BME280;46521;50.160;20.802;2023-06-22T22:41:38;99603.41;;;23.06;59.82
59315;BME280;46521;50.160;20.802;2023-06-22T22:51:39;99581.73;;;22.95;59.89
59315;BME280;46521;50.160;20.802;2023-06-22T23:01:41;99569.45;;;22.82;60.06
59315;BME280;46521;50.160;20.802;2023-06-22T23:11:42;99556.39;;;22.74;60.19
59315;BME280;46521;50.160;20.802;2023-06-22T23:21:44;99534.96;;;22.62;60.24
59315;BME280;46521;50.160;20.802;2023-06-22T23:31:45;99536.46;;;22.53;60.45
59315;BME280;46521;50.160;20.802;2023-06-22T23:41:46;99513.95;;;22.42;60.57
